createdAt,value
2023-03-13T00:01:14.610Z,90.40
2023-03-13T00:03:44.888Z,90.40
2023-03-13T00:06:13.369Z,90.40
2023-03-13T00:08:41.268Z,90.40
2023-03-13T00:11:12.457Z,90.70
2023-03-13T00:13:40.604Z,90.30
2023-03-13T00:16:10.703Z,90.30
2023-03-13T00:18:38.986Z,90.30
2023-03-13T00:21:10.105Z,90.30
2023-03-13T00:23:39.728Z,90.40
2023-03-13T00:26:10.130Z,90.30
2023-03-13T00:28:39.543Z,90.30
2023-03-13T00:31:09.077Z,90.20
2023-03-13T00:33:38.524Z,90.30
2023-03-13T00:36:10.294Z,90.40
2023-03-13T00:38:38.587Z,90.30
2023-03-13T00:41:08.700Z,90.40
2023-03-13T00:43:36.979Z,90.40
2023-03-13T00:46:05.298Z,90.40
2023-03-13T00:48:34.237Z,90.40
2023-03-13T00:51:02.533Z,90.40
2023-03-13T00:53:32.028Z,90.40
2023-03-13T00:56:01.849Z,90.40
2023-03-13T00:58:31.561Z,90.50
2023-03-13T01:01:06.812Z,90.40
2023-03-13T01:03:34.755Z,90.80
2023-03-13T01:06:04.717Z,90.40
2023-03-13T01:08:34.124Z,90.50
2023-03-13T01:11:03.263Z,90.40
2023-03-13T01:13:32.995Z,90.40
2023-03-13T01:16:04.328Z,90.50
2023-03-13T01:18:32.558Z,90.50
2023-03-13T01:21:00.497Z,90.80
2023-03-13T01:23:28.856Z,90.40
2023-03-13T01:25:58.834Z,90.40
2023-03-13T01:28:27.779Z,90.40
2023-03-13T01:30:55.879Z,90.40
2023-03-13T01:33:23.870Z,90.40
2023-03-13T01:35:51.902Z,90.30
2023-03-13T01:38:19.935Z,90.30
2023-03-13T01:40:50.058Z,90.20
2023-03-13T01:43:26.842Z,90.10
2023-03-13T01:46:05.925Z,90.20
2023-03-13T01:48:41.171Z,90.30
2023-03-13T01:51:12.693Z,90.20
2023-03-13T01:53:44.379Z,90.20
2023-03-13T01:56:18.134Z,90.20
2023-03-13T01:58:50.312Z,90.20
2023-03-13T02:01:19.641Z,90.10
2023-03-13T02:03:49.376Z,90.10
2023-03-13T02:06:18.170Z,90.10
2023-03-13T02:08:51.199Z,90.10
2023-03-13T02:11:27.566Z,90.10
2023-03-13T02:13:58.356Z,90.20
2023-03-13T02:16:27.350Z,90.20
2023-03-13T02:18:55.644Z,90.20
2023-03-13T02:21:41.444Z,90.20
2023-03-13T02:24:20.832Z,90.20
2023-03-13T02:26:50.205Z,90.20
2023-03-13T02:29:19.241Z,90.20
2023-03-13T02:31:48.321Z,90.20
2023-03-13T02:34:20.151Z,90.20
2023-03-13T02:36:48.981Z,90.20
2023-03-13T02:39:21.623Z,90.20
2023-03-13T02:41:52.627Z,90.20
2023-03-13T02:44:20.560Z,90.20
2023-03-13T02:46:52.426Z,90.30
2023-03-13T02:49:26.282Z,90.40
2023-03-13T02:51:55.217Z,90.20
2023-03-13T02:54:28.036Z,90.20
2023-03-13T02:56:59.825Z,90.20
2023-03-13T02:59:28.450Z,90.20
2023-03-13T03:01:56.663Z,90.20
2023-03-13T03:04:26.259Z,90.20
2023-03-13T03:06:54.920Z,90.20
2023-03-13T03:09:24.139Z,90.20
2023-03-13T03:11:52.482Z,90.20
2023-03-13T03:14:22.028Z,90.20
2023-03-13T03:16:49.935Z,90.20
2023-03-13T03:19:17.924Z,90.20
2023-03-13T03:21:45.959Z,90.20
2023-03-13T03:24:13.835Z,90.20
2023-03-13T03:26:41.691Z,90.20
2023-03-13T03:29:10.949Z,90.30
2023-03-13T03:31:40.402Z,90.30
2023-03-13T03:34:08.343Z,90.30
2023-03-13T03:36:36.247Z,90.30
2023-03-13T03:39:05.596Z,90.30
2023-03-13T03:41:33.478Z,90.30
2023-03-13T03:44:01.340Z,90.30
2023-03-13T03:46:29.442Z,90.30
2023-03-13T03:48:58.758Z,90.30
2023-03-13T03:51:26.693Z,90.30
2023-03-13T03:53:55.047Z,90.30
2023-03-13T03:56:22.945Z,90.30
2023-03-13T03:58:51.077Z,90.30
2023-03-13T04:01:18.972Z,90.30
2023-03-13T04:03:48.415Z,90.30
2023-03-13T04:06:17.737Z,90.30
2023-03-13T04:08:45.918Z,90.30
2023-03-13T04:11:13.871Z,90.30
2023-03-13T04:13:41.819Z,90.30
2023-03-13T04:16:11.048Z,90.30
2023-03-13T04:18:39.040Z,90.30
2023-03-13T04:21:08.286Z,90.30
2023-03-13T04:23:37.476Z,90.30
2023-03-13T04:26:05.971Z,90.30
2023-03-13T04:28:33.781Z,90.30
2023-03-13T04:31:01.727Z,90.30
2023-03-13T04:33:30.162Z,90.30
2023-03-13T04:35:58.285Z,90.30
2023-03-13T04:38:26.805Z,90.30
2023-03-13T04:40:56.293Z,90.30
2023-03-13T04:43:24.208Z,90.30
2023-03-13T04:45:54.585Z,90.30
2023-03-13T04:48:22.717Z,90.30
2023-03-13T04:50:50.811Z,90.30
2023-03-13T04:53:19.316Z,90.30
2023-03-13T04:55:47.655Z,90.70
2023-03-13T04:58:17.032Z,90.30
2023-03-13T05:00:45.201Z,90.30
2023-03-13T05:03:13.077Z,90.30
2023-03-13T05:05:40.987Z,90.30
2023-03-13T05:08:10.860Z,90.30
2023-03-13T05:10:38.637Z,90.30
2023-03-13T05:13:06.581Z,90.30
2023-03-13T05:15:35.802Z,90.30
2023-03-13T05:18:03.796Z,90.30
2023-03-13T05:20:31.613Z,90.30
2023-03-13T05:22:59.461Z,90.30
2023-03-13T05:25:27.237Z,90.30
2023-03-13T05:27:55.112Z,90.30
2023-03-13T05:30:23.300Z,90.40
2023-03-13T05:32:52.542Z,90.40
2023-03-13T05:35:20.763Z,90.40
2023-03-13T05:37:48.771Z,90.40
2023-03-13T05:40:16.855Z,90.40
2023-03-13T05:42:45.429Z,90.40
2023-03-13T05:45:13.882Z,90.40
2023-03-13T05:47:41.889Z,90.40
2023-03-13T05:50:12.096Z,90.40
2023-03-13T05:52:39.929Z,90.40
2023-03-13T05:55:08.126Z,90.40
2023-03-13T05:57:36.008Z,90.50
2023-03-13T06:00:04.584Z,90.50
2023-03-13T06:02:32.564Z,90.50
2023-03-13T06:05:00.565Z,90.50
2023-03-13T06:07:29.738Z,90.50
2023-03-13T06:09:57.572Z,90.50
2023-03-13T06:12:25.426Z,90.50
2023-03-13T06:14:53.207Z,90.60
2023-03-13T06:17:21.031Z,90.60
2023-03-13T06:19:49.168Z,90.60
2023-03-13T06:22:18.021Z,90.60
2023-03-13T06:24:49.485Z,90.60
2023-03-13T06:27:17.608Z,90.70
2023-03-13T06:29:45.474Z,91.00
2023-03-13T06:32:13.323Z,90.70
2023-03-13T06:34:41.167Z,90.70
2023-03-13T06:37:08.975Z,90.70
2023-03-13T06:39:37.247Z,90.70
2023-03-13T06:42:07.565Z,90.70
2023-03-13T06:44:35.434Z,90.70
2023-03-13T06:47:03.382Z,90.70
2023-03-13T06:49:31.457Z,90.70
2023-03-13T06:51:59.621Z,90.70
2023-03-13T06:54:27.886Z,90.80
2023-03-13T06:56:55.675Z,90.80
2023-03-13T06:59:25.713Z,90.80
2023-03-13T07:01:53.545Z,90.80
2023-03-13T07:04:21.510Z,90.80
2023-03-13T07:06:49.408Z,90.80
2023-03-13T07:09:19.962Z,90.80
2023-03-13T07:11:49.287Z,90.90
2023-03-13T07:14:17.875Z,90.90
2023-03-13T07:16:47.910Z,90.90
2023-03-13T07:19:16.451Z,90.90
2023-03-13T07:21:45.175Z,90.90
2023-03-13T07:24:13.633Z,90.90
2023-03-13T07:26:51.195Z,91.00
2023-03-13T07:29:22.356Z,91.00
2023-03-13T07:31:51.835Z,91.00
2023-03-13T07:34:20.030Z,91.00
2023-03-13T07:36:47.903Z,91.00
2023-03-13T07:39:15.744Z,91.10
2023-03-13T07:41:43.559Z,91.10
2023-03-13T07:44:11.947Z,91.10
2023-03-13T07:46:39.971Z,91.10
2023-03-13T07:49:09.221Z,91.10
2023-03-13T07:51:43.838Z,91.10
2023-03-13T07:54:12.537Z,91.10
2023-03-13T07:56:40.868Z,91.10
2023-03-13T07:59:09.670Z,91.20
2023-03-13T08:01:37.966Z,91.20
2023-03-13T08:04:06.229Z,91.30
2023-03-13T08:06:36.845Z,91.20
2023-03-13T08:09:05.539Z,91.30
2023-03-13T08:11:33.627Z,91.20
2023-03-13T08:14:02.197Z,91.20
2023-03-13T08:16:32.392Z,91.30
2023-03-13T08:19:01.098Z,91.20
2023-03-13T08:21:31.045Z,91.20
2023-03-13T08:24:03.662Z,91.20
2023-03-13T08:26:32.590Z,91.30
2023-03-13T08:29:02.520Z,91.20
2023-03-13T08:31:32.362Z,91.20
2023-03-13T08:34:00.499Z,91.20
2023-03-13T08:36:30.712Z,91.30
2023-03-13T08:39:02.688Z,90.70
2023-03-13T08:41:33.873Z,90.70
2023-03-13T08:44:01.712Z,90.80
2023-03-13T08:46:31.560Z,90.70
2023-03-13T08:48:59.596Z,90.70
2023-03-13T08:51:29.200Z,90.80
2023-03-13T08:53:57.627Z,90.80
2023-03-13T08:56:30.500Z,90.80
2023-03-13T08:59:00.853Z,90.80
2023-03-13T09:01:30.750Z,90.90
2023-03-13T09:04:03.409Z,90.90
2023-03-13T09:06:32.424Z,90.90
2023-03-13T09:09:00.494Z,90.90
2023-03-13T09:11:30.005Z,90.90
2023-03-13T09:13:59.301Z,91.00
2023-03-13T09:16:29.411Z,91.00
2023-03-13T09:18:58.535Z,91.00
2023-03-13T09:21:28.926Z,91.00
2023-03-13T09:23:57.304Z,91.00
2023-03-13T09:26:25.924Z,91.10
2023-03-13T09:28:55.956Z,91.20
2023-03-13T09:31:25.632Z,91.20
2023-03-13T09:33:54.362Z,91.10
2023-03-13T09:36:23.783Z,91.10
2023-03-13T09:38:52.919Z,91.10
2023-03-13T09:41:31.306Z,91.10
2023-03-13T09:44:06.059Z,91.20
2023-03-13T09:46:40.563Z,91.20
2023-03-13T09:49:18.310Z,91.20
2023-03-13T09:51:51.820Z,91.20
2023-03-13T09:54:26.130Z,91.30
2023-03-13T09:56:57.501Z,91.30
2023-03-13T09:59:33.489Z,91.40
2023-03-13T10:02:05.545Z,91.40
2023-03-13T10:04:41.932Z,91.40
2023-03-13T10:07:12.224Z,91.50
2023-03-13T10:09:41.782Z,91.50
2023-03-13T10:12:16.243Z,91.40
2023-03-13T10:14:53.324Z,91.50
2023-03-13T10:17:33.016Z,91.40
2023-03-13T10:20:08.651Z,91.40
2023-03-13T10:22:37.521Z,91.40
2023-03-13T10:25:10.404Z,91.40
2023-03-13T10:27:45.619Z,91.40
2023-03-13T10:30:24.655Z,91.50
2023-03-13T10:32:54.975Z,91.50
2023-03-13T10:35:24.806Z,91.60
2023-03-13T10:38:03.417Z,91.60
2023-03-13T10:40:31.575Z,91.60
2023-03-13T10:43:03.977Z,91.60
2023-03-13T10:45:36.813Z,91.60
2023-03-13T10:48:14.370Z,91.60
2023-03-13T10:50:45.111Z,91.60
2023-03-13T10:53:26.051Z,91.60
2023-03-13T10:55:55.360Z,91.60
2023-03-13T10:58:36.805Z,91.60
2023-03-13T11:01:18.106Z,91.70
2023-03-13T11:03:47.867Z,91.70
2023-03-13T11:06:28.712Z,91.70
2023-03-13T11:09:14.428Z,91.60
2023-03-13T11:11:48.194Z,91.60
2023-03-13T11:14:18.718Z,91.60
2023-03-13T11:16:52.881Z,91.70
2023-03-13T11:19:31.036Z,91.80
2023-03-13T11:22:21.181Z,91.80
2023-03-13T11:24:56.619Z,91.70
2023-03-13T11:27:30.437Z,91.70
2023-03-13T11:30:18.712Z,91.90
2023-03-13T11:32:55.408Z,91.60
2023-03-13T11:35:40.950Z,91.60
2023-03-13T11:38:14.180Z,91.60
2023-03-13T11:40:49.220Z,91.60
2023-03-13T11:43:31.314Z,91.60
2023-03-13T11:46:09.787Z,91.60
2023-03-13T11:49:02.189Z,91.80
2023-03-13T11:51:39.069Z,91.80
2023-03-13T11:54:33.269Z,91.90
2023-03-13T11:57:08.458Z,91.90
2023-03-13T11:59:46.221Z,91.80
2023-03-13T12:02:23.500Z,91.70
2023-03-13T12:04:58.513Z,91.60
2023-03-13T12:07:31.726Z,91.50
2023-03-13T12:10:03.834Z,91.50
2023-03-13T12:12:40.238Z,91.50
2023-03-13T12:15:19.883Z,91.40
2023-03-13T12:17:53.171Z,91.40
2023-03-13T12:20:26.931Z,91.40
2023-03-13T12:23:05.735Z,91.30
2023-03-13T12:25:39.361Z,91.30
2023-03-13T12:28:24.173Z,91.70
2023-03-13T12:31:01.154Z,91.30
2023-03-13T12:33:36.299Z,91.30
2023-03-13T12:36:13.255Z,91.40
2023-03-13T12:38:45.233Z,91.50
2023-03-13T12:41:20.972Z,91.40
2023-03-13T12:44:07.276Z,91.40
2023-03-13T12:46:59.131Z,91.30
2023-03-13T12:50:01.022Z,91.40
2023-03-13T12:53:15.944Z,91.40
2023-03-13T12:56:00.168Z,91.40
2023-03-13T12:58:32.384Z,91.40
2023-03-13T13:01:05.273Z,91.40
2023-03-13T13:03:37.872Z,91.30
2023-03-13T13:06:09.540Z,91.20
2023-03-13T13:08:41.520Z,91.20
2023-03-13T13:11:48.505Z,91.10
2023-03-13T13:14:50.059Z,91.30
2023-03-13T13:17:24.099Z,91.30
2023-03-13T13:19:52.083Z,91.30
2023-03-13T13:22:46.720Z,91.20
2023-03-13T13:25:33.314Z,91.30
2023-03-13T13:28:33.246Z,91.40
2023-03-13T13:31:01.616Z,91.40
2023-03-13T13:33:38.138Z,91.40
2023-03-13T13:36:40.274Z,91.40
2023-03-13T13:39:40.137Z,91.40
2023-03-13T13:42:43.576Z,91.30
2023-03-13T13:45:27.642Z,91.30
2023-03-13T13:48:32.457Z,91.20
2023-03-13T13:51:24.048Z,91.30
2023-03-13T13:53:55.812Z,91.30
2023-03-13T13:56:37.645Z,91.20
2023-03-13T13:59:27.013Z,91.20
2023-03-13T14:02:22.781Z,91.20
2023-03-13T14:05:01.144Z,91.20
2023-03-13T14:07:33.242Z,91.20
2023-03-13T14:10:09.474Z,91.20
2023-03-13T14:12:39.791Z,91.10
2023-03-13T14:15:14.584Z,91.10
2023-03-13T14:17:45.215Z,91.10
2023-03-13T14:20:39.563Z,91.10
2023-03-13T14:23:09.512Z,91.40
2023-03-13T14:25:46.216Z,91.10
2023-03-13T14:28:21.839Z,91.00
2023-03-13T14:30:53.057Z,90.90
2023-03-13T14:33:21.270Z,90.80
2023-03-13T14:35:50.045Z,90.90
2023-03-13T14:38:19.900Z,90.90
2023-03-13T14:40:48.519Z,90.80
2023-03-13T14:43:26.727Z,90.80
2023-03-13T14:45:56.061Z,90.90
2023-03-13T14:48:28.139Z,90.80
2023-03-13T14:51:14.783Z,90.80
2023-03-13T14:53:54.833Z,90.80
2023-03-13T14:56:30.946Z,90.80
2023-03-13T14:59:08.942Z,90.80
2023-03-13T15:01:38.139Z,90.80
2023-03-13T15:04:06.168Z,90.70
2023-03-13T15:06:35.420Z,90.80
2023-03-13T15:09:18.664Z,90.90
2023-03-13T15:11:59.191Z,90.80
2023-03-13T15:14:38.782Z,91.10
2023-03-13T15:17:15.935Z,90.70
2023-03-13T15:19:44.254Z,90.60
2023-03-13T15:22:14.280Z,90.70
2023-03-13T15:24:43.305Z,90.70
2023-03-13T15:27:18.109Z,90.70
2023-03-13T15:29:46.992Z,90.80
2023-03-13T15:32:27.258Z,90.70
2023-03-13T15:34:58.375Z,90.70
2023-03-13T15:37:27.093Z,90.70
2023-03-13T15:39:56.211Z,90.60
2023-03-13T15:42:24.743Z,90.60
2023-03-13T15:44:52.529Z,90.60
2023-03-13T15:47:23.486Z,90.60
2023-03-13T15:49:51.410Z,90.70
2023-03-13T15:52:22.916Z,90.70
2023-03-13T15:54:51.742Z,90.60
2023-03-13T15:57:22.861Z,90.60
2023-03-13T15:59:51.091Z,90.60
2023-03-13T16:02:23.107Z,90.60
2023-03-13T16:04:51.232Z,90.60
2023-03-13T16:07:20.869Z,90.50
2023-03-13T16:09:50.093Z,90.50
2023-03-13T16:12:17.863Z,90.50
2023-03-13T16:14:45.898Z,90.50
2023-03-13T16:17:16.099Z,90.40
2023-03-13T16:19:46.532Z,90.40
2023-03-13T16:22:14.413Z,90.40
2023-03-13T16:24:42.563Z,90.40
2023-03-13T16:27:15.076Z,90.30
2023-03-13T16:29:42.965Z,90.30
2023-03-13T16:32:12.787Z,90.30
2023-03-13T16:34:40.619Z,90.30
2023-03-13T16:37:14.647Z,90.30
2023-03-13T16:39:43.069Z,90.30
2023-03-13T16:42:11.195Z,90.30
2023-03-13T16:44:39.571Z,90.30
2023-03-13T16:47:28.180Z,90.20
2023-03-13T16:49:56.413Z,90.20
2023-03-13T16:52:25.713Z,90.30
2023-03-13T16:54:53.814Z,90.30
2023-03-13T16:57:26.277Z,90.20
2023-03-13T16:59:54.065Z,90.20
2023-03-13T17:02:22.290Z,90.20
2023-03-13T17:04:50.146Z,90.20
2023-03-13T17:07:20.975Z,90.20
2023-03-13T17:09:51.550Z,90.10
2023-03-13T17:12:19.956Z,90.20
2023-03-13T17:14:47.792Z,90.20
2023-03-13T17:17:18.541Z,90.20
2023-03-13T17:19:46.830Z,90.20
2023-03-13T17:22:17.463Z,90.30
2023-03-13T17:24:45.538Z,90.20
2023-03-13T17:27:16.760Z,90.20
2023-03-13T17:29:47.598Z,90.20
2023-03-13T17:32:16.279Z,90.20
2023-03-13T17:34:44.425Z,90.20
2023-03-13T17:37:17.241Z,90.20
2023-03-13T17:39:45.983Z,90.10
2023-03-13T17:42:15.638Z,90.10
2023-03-13T17:44:43.513Z,90.10
2023-03-13T17:47:16.399Z,90.00
2023-03-13T17:49:46.161Z,90.00
2023-03-13T17:52:15.638Z,90.00
2023-03-13T17:54:46.458Z,90.10
2023-03-13T17:57:19.101Z,90.00
2023-03-13T17:59:49.360Z,90.00
2023-03-13T18:02:19.288Z,89.90
2023-03-13T18:04:49.770Z,89.80
2023-03-13T18:07:22.351Z,89.80
2023-03-13T18:09:50.390Z,89.80
2023-03-13T18:12:20.334Z,89.70
2023-03-13T18:14:48.401Z,89.60
2023-03-13T18:17:19.121Z,89.70
2023-03-13T18:19:47.593Z,89.60
2023-03-13T18:22:18.042Z,89.60
2023-03-13T18:24:46.562Z,89.50
2023-03-13T18:27:16.050Z,89.60
2023-03-13T18:29:46.766Z,89.70
2023-03-13T18:32:16.722Z,89.60
2023-03-13T18:34:45.255Z,89.60
2023-03-13T18:37:21.102Z,89.60
2023-03-13T18:39:50.226Z,89.70
2023-03-13T18:42:18.701Z,89.80
2023-03-13T18:44:47.974Z,89.90
2023-03-13T18:47:19.357Z,89.90
2023-03-13T18:49:48.839Z,89.90
2023-03-13T18:52:19.206Z,89.90
2023-03-13T18:54:48.398Z,89.90
2023-03-13T18:57:18.014Z,90.00
2023-03-13T18:59:48.041Z,90.10
2023-03-13T19:02:17.732Z,90.10
2023-03-13T19:04:47.068Z,90.00
2023-03-13T19:07:20.493Z,90.00
2023-03-13T19:09:48.530Z,90.00
2023-03-13T19:12:17.031Z,90.00
2023-03-13T19:14:45.313Z,90.00
2023-03-13T19:17:24.072Z,90.10
2023-03-13T19:19:57.283Z,90.10
2023-03-13T19:22:25.529Z,90.20
2023-03-13T19:24:53.557Z,90.20
2023-03-13T19:27:21.515Z,90.20
2023-03-13T19:29:49.942Z,90.10
2023-03-13T19:32:20.123Z,90.20
2023-03-13T19:34:48.100Z,90.10
2023-03-13T19:37:18.835Z,90.10
2023-03-13T19:39:46.885Z,90.10
2023-03-13T19:42:14.705Z,90.10
2023-03-13T19:44:42.991Z,90.10
2023-03-13T19:47:16.027Z,90.10
2023-03-13T19:49:49.781Z,90.10
2023-03-13T19:52:18.944Z,90.10
2023-03-13T19:54:46.966Z,90.00
2023-03-13T19:57:14.943Z,89.90
2023-03-13T19:59:42.791Z,90.00
2023-03-13T20:02:12.312Z,89.90
2023-03-13T20:04:42.133Z,90.00
2023-03-13T20:07:11.728Z,89.80
2023-03-13T20:09:39.862Z,89.70
2023-03-13T20:12:08.090Z,89.80
2023-03-13T20:14:37.545Z,89.70
2023-03-13T20:17:05.482Z,89.70
2023-03-13T20:19:33.637Z,89.70
2023-03-13T20:22:05.165Z,89.60
2023-03-13T20:24:34.394Z,89.90
2023-03-13T20:27:02.371Z,89.70
2023-03-13T20:29:30.218Z,89.80
2023-03-13T20:32:00.578Z,89.70
2023-03-13T20:34:29.105Z,89.80
2023-03-13T20:37:00.149Z,89.70
2023-03-13T20:39:28.781Z,89.70
2023-03-13T20:42:02.741Z,89.70
2023-03-13T20:44:31.083Z,89.60
2023-03-13T20:46:59.194Z,89.80
2023-03-13T20:49:27.659Z,89.80
2023-03-13T20:51:55.822Z,89.80
2023-03-13T20:54:23.980Z,89.90
2023-03-13T20:56:52.033Z,89.90
2023-03-13T20:59:21.213Z,89.80
2023-03-13T21:01:49.158Z,89.80
2023-03-13T21:04:17.164Z,89.80
2023-03-13T21:06:45.242Z,89.80
2023-03-13T21:09:13.475Z,89.80
2023-03-13T21:11:41.432Z,89.80
2023-03-13T21:14:09.392Z,89.80
2023-03-13T21:16:38.708Z,89.70
2023-03-13T21:19:06.544Z,89.80
2023-03-13T21:21:34.383Z,89.80
2023-03-13T21:24:02.289Z,89.80
2023-03-13T21:26:30.114Z,89.70
2023-03-13T21:28:58.400Z,89.80
2023-03-13T21:31:26.330Z,89.80
2023-03-13T21:33:55.575Z,89.90
2023-03-13T21:36:23.745Z,89.80
2023-03-13T21:38:51.730Z,89.70
2023-03-13T21:41:22.490Z,89.70
2023-03-13T21:43:50.373Z,89.80
2023-03-13T21:46:19.861Z,89.80
2023-03-13T21:48:47.746Z,89.80
2023-03-13T21:51:17.882Z,90.00
2023-03-13T21:53:45.707Z,90.10
2023-03-13T21:56:17.549Z,90.00
2023-03-13T21:58:46.293Z,90.10
2023-03-13T22:01:15.844Z,90.10
2023-03-13T22:03:43.897Z,90.10
2023-03-13T22:06:17.824Z,90.10
2023-03-13T22:08:47.130Z,90.10
2023-03-13T22:11:15.439Z,90.00
2023-03-13T22:13:43.328Z,90.00
2023-03-13T22:16:11.715Z,90.00
2023-03-13T22:18:40.625Z,90.00
2023-03-13T22:21:08.633Z,89.90
2023-03-13T22:23:37.912Z,89.60
2023-03-13T22:26:06.569Z,89.70
2023-03-13T22:28:34.495Z,89.60
2023-03-13T22:31:02.781Z,89.50
2023-03-13T22:33:30.804Z,89.70
2023-03-13T22:35:58.803Z,89.80
2023-03-13T22:38:26.851Z,89.90
2023-03-13T22:41:00.463Z,90.00
2023-03-13T22:43:28.752Z,90.00
2023-03-13T22:45:57.319Z,90.00
2023-03-13T22:48:25.593Z,90.00
2023-03-13T22:51:00.778Z,90.00
2023-03-13T22:53:28.638Z,89.90
2023-03-13T22:55:58.033Z,89.90
2023-03-13T22:58:26.544Z,90.00
2023-03-13T23:00:55.050Z,90.10
2023-03-13T23:03:23.885Z,90.10
2023-03-13T23:05:51.694Z,90.10
2023-03-13T23:08:20.001Z,90.20
2023-03-13T23:10:49.525Z,90.20
2023-03-13T23:13:18.723Z,90.20
2023-03-13T23:15:55.536Z,90.10
2023-03-13T23:18:24.494Z,90.10
2023-03-13T23:20:52.381Z,90.00
2023-03-13T23:23:20.505Z,90.00
2023-03-13T23:25:48.666Z,90.00
2023-03-13T23:28:18.061Z,90.00
2023-03-13T23:30:45.887Z,90.00
2023-03-13T23:33:13.878Z,90.00
2023-03-13T23:35:43.722Z,90.00
2023-03-13T23:38:12.060Z,90.00
2023-03-13T23:40:40.293Z,90.00
2023-03-13T23:43:08.134Z,90.00
2023-03-13T23:45:37.846Z,90.00
2023-03-13T23:48:06.077Z,90.10
2023-03-13T23:50:33.888Z,90.10
2023-03-13T23:53:01.687Z,90.00
2023-03-13T23:55:29.566Z,90.00
2023-03-13T23:57:57.476Z,90.00
